KGAI/GAI METAR and TAF weather

Enter ICAO airport designator
Station Type Date Time Source
KGAI METAR 2024/05/28 23:56 UTC NOAA

KGAI 282356Z AUTO 22005KT 10SM BKN100 23/15 A2988 RMK AO2 SLP129 6//// T02280150 10272 20228 53009 PNO $


Station Type Date Time Source
KGAI Decoded METAR 2024/05/28 23:56 UTC NOAA

Station name not available
May 28, 2024 - 07:56 PM EDT / 2024.05.28 2356 UTC
Wind: from the SW (220 degrees) at 6 MPH (5 KT):0
Visibility: 10 mile(s):0
Sky conditions: mostly cloudy
Temperature: 73.0 F (22.8 C)
Dew Point: 59.0 F (15.0 C)
Relative Humidity: 61%
Pressure (altimeter): 29.88 in. Hg (1011 hPa)
Pressure tendency: 0.03 inches (0.9 hPa) higher than three hours ago
ob: KGAI 282356Z AUTO 22005KT 10SM BKN100 23/15 A2988 RMK AO2 SLP129 6//// T02280150 10272 20228 53009 PNO
cycle: 0

Station Type Date Time Source
KGAI TAF UTC NOAA

Error!

Example: see airport list